Туризм
Свали.ру
Погода в мире
ИА "Метеоновости"
Информеры
для сайтов
Туры
поиск и заказ
Авиабилеты
регулярные и чартерные рейсы
 
    На главную   Табло рисков задержки   Авиабилеты   Расписание авиарейсов

Brigadeiro Camarão Airport    ICAO или ID: SBVH, IATA: BVH
Небольшой аэропорт, регулярные рейсы
добавить в избранное


широта:
долгота:
высота над уровнем моря:
-12°42'
-60°6'

615 м
Страна: Бразилия (Brazil)
погода
климат
описание
туры
отели
аэропорты
Риск задержки рейсов из-за погоды
Факт:  
Прогноз:  
 Карта
 



Текущее время 17:28 UTC 24-06-2024
Солнце: восход 10:21, заход 21:45, долгота дня 11:23

  18:00 (на 12ч) 00:00 (на 12ч) 06:00 (на 12ч) [12:00 (на 12ч)]

Прогноз погоды на 12 ч. с 12:00 24-06-2024 по 00:00 30-11-1999 UTC


Исходная телеграмма в коде TAF
SBVH 240859Z 2412/2424 34008KT CAVOK TX31/2419Z TN25/2423Z

Раскодировка телеграмм производится в автоматическом режиме, в телеграммах могут содержаться ошибки, приводящие к их неправильной интерпретации.

Предупреждение: данные на этом сайте не могут быть использованы для планирования полётов и предоставляются только в информационных целях.
Найти аэропорт
По названию или городу
только регулярные рейсы

Избранные аэропорты
Список пуст



© 2008 Данио-Пресс. Все права защищены.
Использование материалов сайта возможно только с согласия администрации сервера.
По вопросам рекламы и размещения информации обращаться сюда.


 Рейтинг@Mail.ru  Rambler's Top100